createdAt,value
2023-04-16T00:00:58.288Z,100.00
2023-04-16T00:03:25.132Z,100.00
2023-04-16T00:05:51.717Z,100.00
2023-04-16T00:08:18.042Z,100.00
2023-04-16T00:10:44.415Z,100.00
2023-04-16T00:13:10.774Z,100.00
2023-04-16T00:15:37.152Z,100.00
2023-04-16T00:18:03.608Z,100.00
2023-04-16T00:20:29.977Z,100.00
2023-04-16T00:22:56.306Z,100.00
2023-04-16T00:25:22.740Z,100.00
2023-04-16T00:27:49.078Z,100.00
2023-04-16T00:30:15.731Z,100.00
2023-04-16T00:32:42.157Z,100.00
2023-04-16T00:35:08.724Z,100.00
2023-04-16T00:37:35.209Z,100.00
2023-04-16T00:40:01.728Z,100.00
2023-04-16T00:42:28.130Z,100.00
2023-04-16T00:44:54.505Z,100.00
2023-04-16T00:47:21.728Z,100.00
2023-04-16T00:49:48.727Z,100.00
2023-04-16T00:52:15.365Z,100.00
2023-04-16T00:54:41.905Z,100.00
2023-04-16T00:57:08.944Z,100.00
2023-04-16T00:59:35.328Z,100.00
2023-04-16T01:02:01.785Z,100.00
2023-04-16T01:04:30.893Z,100.00
2023-04-16T01:06:57.508Z,100.00
2023-04-16T01:09:23.845Z,100.00
2023-04-16T01:11:50.202Z,100.00
2023-04-16T01:14:16.570Z,100.00
2023-04-16T01:16:42.967Z,100.00
2023-04-16T01:19:09.433Z,100.00
2023-04-16T01:21:36.076Z,100.00
2023-04-16T01:24:06.521Z,100.00
2023-04-16T01:26:33.137Z,100.00
2023-04-16T01:29:00.354Z,100.00
2023-04-16T01:31:26.816Z,100.00
2023-04-16T01:33:53.204Z,100.00
2023-04-16T01:36:19.648Z,100.00
2023-04-16T01:38:46.269Z,100.00
2023-04-16T01:41:12.650Z,100.00
2023-04-16T01:43:40.321Z,100.00
2023-04-16T01:46:24.685Z,100.00
2023-04-16T01:48:54.583Z,100.00
2023-04-16T01:51:21.843Z,100.00
2023-04-16T01:53:49.642Z,100.00
2023-04-16T01:56:16.211Z,100.00
2023-04-16T01:58:42.832Z,100.00
2023-04-16T02:01:09.945Z,100.00
2023-04-16T02:03:36.470Z,100.00
2023-04-16T02:06:03.174Z,100.00
2023-04-16T02:08:29.566Z,100.00
2023-04-16T02:10:57.258Z,100.00
2023-04-16T02:13:25.518Z,100.00
2023-04-16T02:15:52.390Z,100.00
2023-04-16T02:18:18.929Z,100.00
2023-04-16T02:20:47.004Z,100.00
2023-04-16T02:23:15.042Z,100.00
2023-04-16T02:25:42.902Z,100.00
2023-04-16T02:28:10.625Z,100.00
2023-04-16T02:30:38.114Z,100.00
2023-04-16T02:33:05.661Z,100.00
2023-04-16T02:35:35.119Z,100.00
2023-04-16T02:38:02.177Z,100.00
2023-04-16T02:40:28.672Z,100.00
2023-04-16T02:42:55.574Z,100.00
2023-04-16T02:45:22.293Z,100.00
2023-04-16T02:47:49.730Z,100.00
2023-04-16T02:50:16.635Z,100.00
2023-04-16T02:52:43.151Z,100.00
2023-04-16T02:55:10.357Z,100.00
2023-04-16T02:57:36.882Z,100.00
2023-04-16T03:00:05.015Z,100.00
2023-04-16T03:02:31.812Z,100.00
2023-04-16T03:04:58.275Z,100.00
2023-04-16T03:07:24.705Z,100.00
2023-04-16T03:09:51.053Z,100.00
2023-04-16T03:12:17.577Z,100.00
2023-04-16T03:14:43.945Z,100.00
2023-04-16T03:17:10.698Z,100.00
2023-04-16T03:19:37.193Z,100.00
2023-04-16T03:22:03.557Z,100.00
2023-04-16T03:24:30.000Z,100.00
2023-04-16T03:26:57.802Z,100.00
2023-04-16T03:29:24.243Z,100.00
2023-04-16T03:31:50.609Z,100.00
2023-04-16T03:34:16.994Z,100.00
2023-04-16T03:36:43.361Z,100.00
2023-04-16T03:39:09.880Z,100.00
2023-04-16T03:41:36.461Z,100.00
2023-04-16T03:44:02.866Z,100.00
2023-04-16T03:46:29.348Z,100.00
2023-04-16T03:48:55.929Z,100.00
2023-04-16T03:51:22.273Z,100.00
2023-04-16T03:53:48.630Z,100.00
2023-04-16T03:56:14.984Z,100.00
2023-04-16T03:58:41.348Z,100.00
2023-04-16T04:01:07.707Z,100.00
2023-04-16T04:03:34.309Z,100.00
2023-04-16T04:06:00.841Z,100.00
2023-04-16T04:08:27.262Z,100.00
2023-04-16T04:10:53.616Z,100.00
2023-04-16T04:13:19.994Z,100.00
2023-04-16T04:15:46.340Z,100.00
2023-04-16T04:18:12.742Z,100.00
2023-04-16T04:20:41.025Z,100.00
2023-04-16T04:23:07.373Z,100.00
2023-04-16T04:25:33.852Z,100.00
2023-04-16T04:28:00.214Z,100.00
2023-04-16T04:30:26.546Z,100.00
2023-04-16T04:32:52.928Z,100.00
2023-04-16T04:35:19.396Z,100.00
2023-04-16T04:37:45.876Z,100.00
2023-04-16T04:40:12.271Z,100.00
2023-04-16T04:42:38.660Z,100.00
2023-04-16T04:45:05.900Z,100.00
2023-04-16T04:47:32.368Z,100.00
2023-04-16T04:49:58.744Z,100.00
2023-04-16T04:52:25.117Z,100.00
2023-04-16T04:54:52.658Z,100.00
2023-04-16T04:57:19.106Z,100.00
2023-04-16T04:59:45.634Z,100.00
2023-04-16T05:02:12.089Z,100.00
2023-04-16T05:04:38.560Z,100.00
2023-04-16T05:07:05.009Z,100.00
2023-04-16T05:09:31.627Z,100.00
2023-04-16T05:11:58.268Z,100.00
2023-04-16T05:14:24.623Z,100.00
2023-04-16T05:16:51.349Z,100.00
2023-04-16T05:19:17.790Z,100.00
2023-04-16T05:21:44.142Z,100.00
2023-04-16T05:24:10.829Z,100.00
2023-04-16T05:26:37.970Z,100.00
2023-04-16T05:29:04.582Z,100.00
2023-04-16T05:31:30.932Z,100.00
2023-04-16T05:33:57.328Z,100.00
2023-04-16T05:36:23.708Z,100.00
2023-04-16T05:38:50.103Z,100.00
2023-04-16T05:41:16.502Z,100.00
2023-04-16T05:43:42.860Z,100.00
2023-04-16T05:46:09.222Z,100.00
2023-04-16T05:48:35.625Z,100.00
2023-04-16T05:51:02.699Z,100.00
2023-04-16T05:53:29.111Z,100.00
2023-04-16T05:55:55.656Z,100.00
2023-04-16T05:58:22.027Z,100.00
2023-04-16T06:00:48.582Z,100.00
2023-04-16T06:03:15.194Z,100.00
2023-04-16T06:05:41.718Z,100.00
2023-04-16T06:08:08.196Z,100.00
2023-04-16T06:10:34.737Z,100.00
2023-04-16T06:13:01.147Z,100.00
2023-04-16T06:15:27.510Z,100.00
2023-04-16T06:17:54.366Z,100.00
2023-04-16T06:20:20.906Z,100.00
2023-04-16T06:22:47.343Z,100.00
2023-04-16T06:25:14.475Z,100.00
2023-04-16T06:27:41.592Z,100.00
2023-04-16T06:30:13.089Z,100.00
2023-04-16T06:32:39.535Z,100.00
2023-04-16T06:35:06.562Z,100.00
2023-04-16T06:37:32.923Z,100.00
2023-04-16T06:39:59.277Z,100.00
2023-04-16T06:42:26.010Z,100.00
2023-04-16T06:44:52.379Z,100.00
2023-04-16T06:47:18.835Z,100.00
2023-04-16T06:49:45.319Z,100.00
2023-04-16T06:52:11.994Z,100.00
2023-04-16T06:54:38.454Z,100.00
2023-04-16T06:57:04.818Z,100.00
2023-04-16T06:59:31.696Z,100.00
2023-04-16T07:01:58.243Z,100.00
2023-04-16T07:04:24.814Z,100.00
2023-04-16T07:06:51.266Z,100.00
2023-04-16T07:09:17.980Z,100.00
2023-04-16T07:11:44.484Z,100.00
2023-04-16T07:14:11.059Z,100.00
2023-04-16T07:16:37.816Z,100.00
2023-04-16T07:19:04.412Z,100.00
2023-04-16T07:21:31.806Z,100.00
2023-04-16T07:23:58.214Z,100.00
2023-04-16T07:26:24.614Z,100.00
2023-04-16T07:28:51.127Z,100.00
2023-04-16T07:31:17.597Z,100.00
2023-04-16T07:33:44.052Z,100.00
2023-04-16T07:36:10.963Z,100.00
2023-04-16T07:38:37.333Z,100.00
2023-04-16T07:41:03.739Z,100.00
2023-04-16T07:43:30.389Z,100.00
2023-04-16T07:45:56.789Z,100.00
2023-04-16T07:48:23.194Z,100.00
2023-04-16T07:50:50.278Z,100.00
2023-04-16T07:53:16.645Z,100.00
2023-04-16T07:55:43.082Z,100.00
2023-04-16T07:58:09.521Z,100.00
2023-04-16T08:00:35.949Z,100.00
2023-04-16T08:03:02.546Z,100.00
2023-04-16T08:05:29.231Z,100.00
2023-04-16T08:07:55.636Z,100.00
2023-04-16T08:10:22.078Z,100.00
2023-04-16T08:12:48.507Z,100.00
2023-04-16T08:15:14.925Z,100.00
2023-04-16T08:17:41.302Z,100.00
2023-04-16T08:20:08.084Z,100.00
2023-04-16T08:22:34.494Z,100.00
2023-04-16T08:25:00.953Z,100.00
2023-04-16T08:27:27.297Z,100.00
2023-04-16T08:29:53.718Z,100.00
2023-04-16T08:32:20.554Z,100.00
2023-04-16T08:34:47.044Z,100.00
2023-04-16T08:37:13.470Z,100.00
2023-04-16T08:39:39.847Z,100.00
2023-04-16T08:42:11.902Z,100.00
2023-04-16T08:44:44.225Z,100.00
2023-04-16T08:47:12.725Z,100.00
2023-04-16T08:49:44.098Z,100.00
2023-04-16T08:52:15.196Z,100.00
2023-04-16T08:54:58.004Z,100.00
2023-04-16T08:57:30.425Z,100.00
2023-04-16T08:59:57.838Z,100.00
2023-04-16T09:02:26.192Z,100.00
2023-04-16T09:04:53.936Z,100.00
2023-04-16T09:07:21.068Z,100.00
2023-04-16T09:09:49.695Z,100.00
2023-04-16T09:12:17.336Z,100.00
2023-04-16T09:14:46.970Z,100.00
2023-04-16T09:17:14.582Z,100.00
2023-04-16T09:19:40.943Z,100.00
2023-04-16T09:22:07.387Z,100.00
2023-04-16T09:24:34.764Z,100.00
2023-04-16T09:27:01.110Z,100.00
2023-04-16T09:29:39.122Z,100.00
2023-04-16T09:32:10.907Z,100.00
2023-04-16T09:35:01.783Z,100.00
2023-04-16T09:37:29.925Z,100.00
2023-04-16T09:40:01.024Z,100.00
2023-04-16T09:42:29.685Z,100.00
2023-04-16T09:44:59.441Z,100.00
2023-04-16T09:47:39.891Z,100.00
2023-04-16T09:50:08.293Z,100.00
2023-04-16T09:52:37.730Z,100.00
2023-04-16T09:55:04.730Z,100.00
2023-04-16T09:57:31.091Z,100.00
2023-04-16T10:00:06.149Z,100.00
2023-04-16T10:02:34.486Z,100.00
2023-04-16T10:05:06.060Z,100.00
2023-04-16T10:07:36.602Z,100.00
2023-04-16T10:10:04.260Z,100.00
2023-04-16T10:12:32.721Z,100.00
2023-04-16T10:14:59.163Z,100.00
2023-04-16T10:17:26.485Z,100.00
2023-04-16T10:19:54.586Z,100.00
2023-04-16T10:22:21.011Z,100.00
2023-04-16T10:24:48.768Z,100.00
2023-04-16T10:27:16.571Z,100.00
2023-04-16T10:29:43.985Z,100.00
2023-04-16T10:32:10.680Z,100.00
2023-04-16T10:34:37.166Z,100.00
2023-04-16T10:37:03.558Z,100.00
2023-04-16T10:39:30.010Z,100.00
2023-04-16T10:42:12.403Z,100.00
2023-04-16T10:44:43.388Z,100.00
2023-04-16T10:47:13.166Z,100.00
2023-04-16T10:49:40.481Z,100.00
2023-04-16T10:52:17.077Z,100.00
2023-04-16T10:54:43.874Z,100.00
2023-04-16T10:57:16.019Z,100.00
2023-04-16T10:59:44.019Z,100.00
2023-04-16T11:02:15.906Z,100.00
2023-04-16T11:04:45.117Z,100.00
2023-04-16T11:07:11.628Z,100.00
2023-04-16T11:09:57.475Z,100.00
2023-04-16T11:12:27.649Z,100.00
2023-04-16T11:14:59.188Z,100.00
2023-04-16T11:17:29.345Z,100.00
2023-04-16T11:19:55.927Z,100.00
2023-04-16T11:22:22.736Z,100.00
2023-04-16T11:24:54.820Z,100.00
2023-04-16T11:27:21.182Z,100.00
2023-04-16T11:29:59.167Z,100.00
2023-04-16T11:32:25.874Z,100.00
2023-04-16T11:34:52.342Z,100.00
2023-04-16T11:37:21.763Z,100.00
2023-04-16T11:39:52.680Z,100.00
2023-04-16T11:42:22.561Z,100.00
2023-04-16T11:44:54.289Z,100.00
2023-04-16T11:47:21.225Z,100.00
2023-04-16T11:49:47.738Z,100.00
2023-04-16T11:52:24.638Z,100.00
2023-04-16T11:54:51.004Z,100.00
2023-04-16T11:57:24.605Z,100.00
2023-04-16T12:00:01.351Z,100.00
2023-04-16T12:02:39.960Z,100.00
2023-04-16T12:05:25.524Z,100.00
2023-04-16T12:07:51.873Z,100.00
2023-04-16T12:10:18.256Z,100.00
2023-04-16T12:12:44.648Z,100.00
2023-04-16T12:15:11.221Z,100.00
2023-04-16T12:17:38.468Z,100.00
2023-04-16T12:20:10.058Z,100.00
2023-04-16T12:22:44.414Z,100.00
2023-04-16T12:25:13.266Z,100.00
2023-04-16T12:27:55.741Z,100.00
2023-04-16T12:30:24.421Z,100.00
2023-04-16T12:32:53.121Z,99.92
2023-04-16T12:35:33.725Z,98.25
2023-04-16T12:38:00.893Z,98.76
2023-04-16T12:40:27.468Z,97.17
2023-04-16T12:42:53.860Z,97.89
2023-04-16T12:45:20.651Z,97.17
2023-04-16T12:47:47.551Z,95.38
2023-04-16T12:50:14.055Z,95.25
2023-04-16T12:52:40.434Z,96.27
2023-04-16T12:55:07.025Z,96.61
2023-04-16T12:57:33.396Z,96.14
2023-04-16T12:59:59.814Z,96.41
2023-04-16T13:02:26.312Z,96.66
2023-04-16T13:04:53.865Z,97.19
2023-04-16T13:07:21.185Z,94.88
2023-04-16T13:09:47.738Z,95.25
2023-04-16T13:12:14.109Z,93.98
2023-04-16T13:14:40.505Z,94.43
2023-04-16T13:17:06.862Z,93.41
2023-04-16T13:19:33.215Z,93.00
2023-04-16T13:21:59.630Z,92.87
2023-04-16T13:24:26.090Z,92.09
2023-04-16T13:26:52.625Z,92.43
2023-04-16T13:29:22.276Z,93.11
2023-04-16T13:31:49.371Z,93.35
2023-04-16T13:34:15.857Z,92.20
2023-04-16T13:36:42.239Z,91.30
2023-04-16T13:39:11.558Z,89.77
2023-04-16T13:41:38.601Z,89.87
2023-04-16T13:44:05.001Z,90.19
2023-04-16T13:46:31.636Z,89.24
2023-04-16T13:48:58.045Z,89.28
2023-04-16T13:51:24.419Z,88.88
2023-04-16T13:53:50.913Z,90.40
2023-04-16T13:56:17.351Z,88.92
2023-04-16T13:58:43.744Z,89.56
2023-04-16T14:01:10.170Z,86.50
2023-04-16T14:03:38.449Z,86.42
2023-04-16T14:06:05.497Z,85.26
2023-04-16T14:08:32.182Z,84.56
2023-04-16T14:10:58.707Z,83.75
2023-04-16T14:13:25.539Z,84.51
2023-04-16T14:15:55.577Z,84.09
2023-04-16T14:18:22.068Z,82.53
2023-04-16T14:20:48.526Z,82.23
2023-04-16T14:23:14.907Z,81.60
2023-04-16T14:25:41.303Z,83.20
2023-04-16T14:28:08.877Z,83.56
2023-04-16T14:30:35.334Z,82.59
2023-04-16T14:33:01.929Z,82.65
2023-04-16T14:35:28.379Z,83.39
2023-04-16T14:37:55.930Z,83.45
2023-04-16T14:40:22.322Z,83.86
2023-04-16T14:42:48.700Z,82.39
2023-04-16T14:45:15.897Z,81.13
2023-04-16T14:47:46.985Z,80.33
2023-04-16T14:50:14.097Z,79.99
2023-04-16T14:52:40.648Z,79.33
2023-04-16T14:55:07.348Z,79.48
2023-04-16T14:57:33.862Z,79.72
2023-04-16T15:00:00.258Z,77.93
2023-04-16T15:02:26.985Z,77.85
2023-04-16T15:04:54.454Z,77.94
2023-04-16T15:07:21.526Z,79.94
2023-04-16T15:09:47.912Z,79.58
2023-04-16T15:12:14.360Z,80.06
2023-04-16T15:14:40.754Z,78.42
2023-04-16T15:17:07.254Z,76.30
2023-04-16T15:19:33.630Z,76.60
2023-04-16T15:22:00.066Z,78.07
2023-04-16T15:24:26.425Z,77.63
2023-04-16T15:26:52.802Z,77.31
2023-04-16T15:29:19.155Z,77.55
2023-04-16T15:31:45.625Z,78.31
2023-04-16T15:34:12.347Z,77.65
2023-04-16T15:36:38.869Z,78.80
2023-04-16T15:39:05.340Z,78.04
2023-04-16T15:41:36.266Z,78.26
2023-04-16T15:44:03.419Z,78.69
2023-04-16T15:46:29.808Z,79.85
2023-04-16T15:48:56.180Z,79.13
2023-04-16T15:51:22.761Z,77.98
2023-04-16T15:53:50.380Z,76.01
2023-04-16T15:56:16.978Z,77.48
2023-04-16T15:58:43.376Z,76.88
2023-04-16T16:01:09.731Z,76.88
2023-04-16T16:03:36.464Z,78.11
2023-04-16T16:06:07.652Z,77.36
2023-04-16T16:08:35.788Z,77.48
2023-04-16T16:11:02.640Z,77.12
2023-04-16T16:13:29.259Z,78.66
2023-04-16T16:15:56.028Z,79.32
2023-04-16T16:18:22.408Z,79.61
2023-04-16T16:20:49.221Z,80.71
2023-04-16T16:23:15.803Z,80.78
2023-04-16T16:25:42.441Z,80.62
2023-04-16T16:28:08.838Z,81.45
2023-04-16T16:30:35.353Z,81.68
2023-04-16T16:33:01.776Z,82.51
2023-04-16T16:35:28.173Z,82.59
2023-04-16T16:37:57.085Z,82.16
2023-04-16T16:40:23.729Z,82.97
2023-04-16T16:42:50.172Z,82.88
2023-04-16T16:45:16.746Z,82.64
2023-04-16T16:47:43.196Z,82.75
2023-04-16T16:50:11.421Z,83.65
2023-04-16T16:52:38.894Z,83.62
2023-04-16T16:55:08.556Z,83.82
2023-04-16T16:57:34.957Z,82.85
2023-04-16T17:00:01.378Z,83.06
2023-04-16T17:02:30.933Z,84.00
2023-04-16T17:04:58.956Z,84.09
2023-04-16T17:07:25.560Z,83.63
2023-04-16T17:09:51.922Z,83.91
2023-04-16T17:12:18.299Z,84.65
2023-04-16T17:14:44.652Z,85.10
2023-04-16T17:17:11.027Z,85.45
2023-04-16T17:19:37.386Z,85.24
2023-04-16T17:22:03.800Z,85.11
2023-04-16T17:24:30.184Z,84.96
2023-04-16T17:26:58.402Z,85.87
2023-04-16T17:29:26.149Z,85.66
2023-04-16T17:31:55.571Z,85.63
2023-04-16T17:34:22.545Z,85.75
2023-04-16T17:36:50.494Z,85.79
2023-04-16T17:39:17.160Z,86.71
2023-04-16T17:41:44.345Z,86.69
2023-04-16T17:44:11.838Z,86.83
2023-04-16T17:46:38.458Z,86.48
2023-04-16T17:49:04.888Z,86.46
2023-04-16T17:51:31.287Z,87.17
2023-04-16T17:53:57.646Z,87.60
2023-04-16T17:56:23.981Z,87.77
2023-04-16T17:58:50.335Z,88.30
2023-04-16T18:01:16.764Z,88.39
2023-04-16T18:03:44.432Z,88.76
2023-04-16T18:06:11.232Z,89.31
2023-04-16T18:08:37.617Z,89.13
2023-04-16T18:11:08.294Z,89.49
2023-04-16T18:13:35.105Z,89.41
2023-04-16T18:16:01.831Z,89.48
2023-04-16T18:18:28.340Z,89.97
2023-04-16T18:20:54.672Z,89.81
2023-04-16T18:23:21.326Z,90.18
2023-04-16T18:25:48.887Z,90.69
2023-04-16T18:28:15.399Z,90.32
2023-04-16T18:30:42.576Z,90.54
2023-04-16T18:33:30.588Z,91.19
2023-04-16T18:35:55.558Z,91.21
2023-04-16T18:38:21.915Z,91.66
2023-04-16T18:40:49.679Z,92.29
2023-04-16T18:43:16.104Z,92.61
2023-04-16T18:45:42.481Z,91.77
2023-04-16T18:48:08.820Z,92.20
2023-04-16T18:50:35.227Z,91.48
2023-04-16T18:53:01.640Z,92.03
2023-04-16T18:55:28.700Z,91.36
2023-04-16T18:57:55.185Z,91.83
2023-04-16T19:00:21.651Z,91.79
2023-04-16T19:02:48.152Z,92.12
2023-04-16T19:05:14.597Z,92.54
2023-04-16T19:07:41.716Z,92.20
2023-04-16T19:10:08.665Z,92.28
2023-04-16T19:12:35.008Z,93.13
2023-04-16T19:15:01.359Z,93.62
2023-04-16T19:17:27.771Z,93.08
2023-04-16T19:19:54.149Z,93.39
2023-04-16T19:22:20.540Z,93.90
2023-04-16T19:24:46.926Z,94.26
2023-04-16T19:27:13.306Z,94.24
2023-04-16T19:29:40.816Z,95.23
2023-04-16T19:32:07.311Z,95.40
2023-04-16T19:34:33.760Z,94.87
2023-04-16T19:37:00.440Z,94.87
2023-04-16T19:39:27.949Z,94.26
2023-04-16T19:41:54.310Z,93.70
2023-04-16T19:44:23.041Z,94.48
2023-04-16T19:46:49.433Z,94.82
2023-04-16T19:49:16.001Z,95.05
2023-04-16T19:51:42.375Z,95.73
2023-04-16T19:54:09.016Z,95.66
2023-04-16T19:56:35.781Z,95.40
2023-04-16T19:59:02.442Z,95.75
2023-04-16T20:01:30.712Z,94.29
2023-04-16T20:03:57.178Z,95.74
2023-04-16T20:06:24.028Z,94.91
2023-04-16T20:08:50.438Z,94.92
2023-04-16T20:11:17.628Z,95.25
2023-04-16T20:13:47.706Z,95.19
2023-04-16T20:16:14.551Z,96.10
2023-04-16T20:18:41.480Z,96.26
2023-04-16T20:21:09.037Z,95.81
2023-04-16T20:23:35.639Z,96.57
2023-04-16T20:26:02.130Z,95.70
2023-04-16T20:28:28.468Z,95.74
2023-04-16T20:30:54.870Z,96.12
2023-04-16T20:33:21.342Z,96.64
2023-04-16T20:35:47.779Z,97.15
2023-04-16T20:38:14.149Z,96.68
2023-04-16T20:40:40.515Z,95.76
2023-04-16T20:43:10.133Z,95.87
2023-04-16T20:45:40.840Z,95.69
2023-04-16T20:48:07.883Z,95.60
2023-04-16T20:50:34.327Z,95.08
2023-04-16T20:53:00.760Z,95.60
2023-04-16T20:55:27.334Z,96.05
2023-04-16T20:57:53.695Z,95.21
2023-04-16T21:00:20.341Z,95.06
2023-04-16T21:02:46.812Z,95.16
2023-04-16T21:05:16.223Z,95.15
2023-04-16T21:07:43.078Z,94.76
2023-04-16T21:10:10.759Z,95.38
2023-04-16T21:12:37.237Z,95.41
2023-04-16T21:15:04.624Z,95.09
2023-04-16T21:17:31.650Z,94.69
2023-04-16T21:19:58.341Z,95.30
2023-04-16T21:22:24.740Z,95.91
2023-04-16T21:24:51.066Z,95.69
2023-04-16T21:27:17.535Z,95.13
2023-04-16T21:29:43.887Z,94.84
2023-04-16T21:32:10.270Z,95.39
2023-04-16T21:34:36.614Z,95.19
2023-04-16T21:37:03.643Z,96.07
2023-04-16T21:39:30.915Z,95.59
2023-04-16T21:41:57.658Z,96.11
2023-04-16T21:44:24.123Z,95.91
2023-04-16T21:46:51.030Z,96.50
2023-04-16T21:49:17.413Z,96.29
2023-04-16T21:51:45.960Z,95.70
2023-04-16T21:54:12.846Z,96.43
2023-04-16T21:56:39.213Z,96.55
2023-04-16T21:59:05.564Z,96.18
2023-04-16T22:01:32.000Z,96.48
2023-04-16T22:03:58.519Z,96.05
2023-04-16T22:06:26.000Z,96.88
2023-04-16T22:08:53.396Z,96.80
2023-04-16T22:11:19.782Z,96.37
2023-04-16T22:13:47.789Z,96.69
2023-04-16T22:16:14.341Z,97.15
2023-04-16T22:18:40.953Z,97.16
2023-04-16T22:21:07.341Z,97.83
2023-04-16T22:23:33.776Z,97.67
2023-04-16T22:26:00.171Z,97.96
2023-04-16T22:28:27.166Z,98.12
2023-04-16T22:30:53.587Z,98.17
2023-04-16T22:33:20.268Z,97.58
2023-04-16T22:35:46.646Z,97.77
2023-04-16T22:38:13.154Z,97.50
2023-04-16T22:40:39.512Z,98.40
2023-04-16T22:43:06.097Z,98.21
2023-04-16T22:45:32.440Z,98.67
2023-04-16T22:47:58.862Z,99.62
2023-04-16T22:50:25.371Z,99.27
2023-04-16T22:52:51.724Z,99.58
2023-04-16T22:55:18.202Z,99.38
2023-04-16T22:57:44.565Z,99.29
2023-04-16T23:00:15.793Z,99.50
2023-04-16T23:02:42.915Z,100.00
2023-04-16T23:05:09.509Z,100.00
2023-04-16T23:07:36.050Z,100.00
2023-04-16T23:10:02.443Z,99.92
2023-04-16T23:12:28.810Z,100.00
2023-04-16T23:14:55.301Z,100.00
2023-04-16T23:17:21.646Z,100.00
2023-04-16T23:19:47.986Z,100.00
2023-04-16T23:22:14.340Z,100.00
2023-04-16T23:24:40.724Z,100.00
2023-04-16T23:27:07.093Z,100.00
2023-04-16T23:29:33.441Z,100.00
2023-04-16T23:31:59.857Z,100.00
2023-04-16T23:34:26.400Z,100.00
2023-04-16T23:36:52.744Z,100.00
2023-04-16T23:39:19.163Z,100.00
2023-04-16T23:41:45.699Z,100.00
2023-04-16T23:44:12.058Z,100.00
2023-04-16T23:46:39.205Z,100.00
2023-04-16T23:49:05.781Z,100.00
2023-04-16T23:51:32.141Z,100.00
2023-04-16T23:53:58.515Z,100.00
2023-04-16T23:56:24.937Z,100.00
2023-04-16T23:58:51.298Z,100.00
